sensor_id;sensor_type;location;lat;lon;timestamp;temperature;humidity
35635;DHT22;21757;43.610;1.440;2022-09-19T00:01:16;15.50;86.40
35635;DHT22;21757;43.610;1.440;2022-09-19T00:03:47;15.50;87.30
35635;DHT22;21757;43.610;1.440;2022-09-19T00:06:14;15.50;87.20
35635;DHT22;21757;43.610;1.440;2022-09-19T00:08:42;15.50;86.60
35635;DHT22;21757;43.610;1.440;2022-09-19T00:11:10;15.40;87.20
35635;DHT22;21757;43.610;1.440;2022-09-19T00:13:37;15.40;87.30
35635;DHT22;21757;43.610;1.440;2022-09-19T00:16:05;15.40;87.40
35635;DHT22;21757;43.610;1.440;2022-09-19T00:18:31;15.30;87.60
35635;DHT22;21757;43.610;1.440;2022-09-19T00:20:57;15.30;88.10
35635;DHT22;21757;43.610;1.440;2022-09-19T00:23:26;15.30;87.40
35635;DHT22;21757;43.610;1.440;2022-09-19T00:26:11;15.30;87.20
35635;DHT22;21757;43.610;1.440;2022-09-19T00:28:38;15.20;88.40
35635;DHT22;21757;43.610;1.440;2022-09-19T00:31:05;15.20;87.90
35635;DHT22;21757;43.610;1.440;2022-09-19T00:33:33;15.30;87.90
35635;DHT22;21757;43.610;1.440;2022-09-19T00:36:00;15.20;88.10
35635;DHT22;21757;43.610;1.440;2022-09-19T00:38:28;15.20;88.30
35635;DHT22;21757;43.610;1.440;2022-09-19T00:40:55;15.10;88.10
35635;DHT22;21757;43.610;1.440;2022-09-19T00:43:23;15.10;88.10
35635;DHT22;21757;43.610;1.440;2022-09-19T00:45:51;15.00;88.30
35635;DHT22;21757;43.610;1.440;2022-09-19T00:48:20;15.00;88.60
35635;DHT22;21757;43.610;1.440;2022-09-19T00:50:51;14.90;88.40
35635;DHT22;21757;43.610;1.440;2022-09-19T00:53:21;15.00;88.30
35635;DHT22;21757;43.610;1.440;2022-09-19T00:55:52;15.00;88.30
35635;DHT22;21757;43.610;1.440;2022-09-19T00:58:29;15.00;88.60
35635;DHT22;21757;43.610;1.440;2022-09-19T01:00:56;15.00;89.30
35635;DHT22;21757;43.610;1.440;2022-09-19T01:03:23;15.00;89.00
35635;DHT22;21757;43.610;1.440;2022-09-19T01:12:25;14.90;89.40
35635;DHT22;21757;43.610;1.440;2022-09-19T01:17:55;14.80;89.50
35635;DHT22;21757;43.610;1.440;2022-09-19T01:20:59;14.80;89.40
35635;DHT22;21757;43.610;1.440;2022-09-19T01:24:57;14.80;89.50
35635;DHT22;21757;43.610;1.440;2022-09-19T01:30:01;14.70;90.00
35635;DHT22;21757;43.610;1.440;2022-09-19T01:32:37;14.70;90.40
35635;DHT22;21757;43.610;1.440;2022-09-19T01:35:06;14.70;89.90
35635;DHT22;21757;43.610;1.440;2022-09-19T01:37:44;14.70;90.10
35635;DHT22;21757;43.610;1.440;2022-09-19T01:40:12;14.60;90.10
35635;DHT22;21757;43.610;1.440;2022-09-19T01:42:52;14.60;90.30
35635;DHT22;21757;43.610;1.440;2022-09-19T01:45:40;14.60;90.20
35635;DHT22;21757;43.610;1.440;2022-09-19T01:54:06;14.50;90.20
35635;DHT22;21757;43.610;1.440;2022-09-19T02:01:58;14.40;90.40
35635;DHT22;21757;43.610;1.440;2022-09-19T02:04:41;14.30;90.50
35635;DHT22;21757;43.610;1.440;2022-09-19T02:10:33;14.20;90.50
35635;DHT22;21757;43.610;1.440;2022-09-19T02:13:04;14.20;90.70
35635;DHT22;21757;43.610;1.440;2022-09-19T02:15:31;14.10;90.70
35635;DHT22;21757;43.610;1.440;2022-09-19T02:18:26;14.10;90.60
35635;DHT22;21757;43.610;1.440;2022-09-19T02:20:59;14.10;91.00
35635;DHT22;21757;43.610;1.440;2022-09-19T02:23:29;14.10;91.00
35635;DHT22;21757;43.610;1.440;2022-09-19T02:25:57;14.10;91.00
35635;DHT22;21757;43.610;1.440;2022-09-19T02:28:38;14.00;91.00
35635;DHT22;21757;43.610;1.440;2022-09-19T02:31:08;14.00;91.00
35635;DHT22;21757;43.610;1.440;2022-09-19T02:33:35;14.00;91.30
35635;DHT22;21757;43.610;1.440;2022-09-19T02:36:26;14.00;91.10
35635;DHT22;21757;43.610;1.440;2022-09-19T02:42:21;13.80;91.30
35635;DHT22;21757;43.610;1.440;2022-09-19T02:45:05;13.80;91.20
35635;DHT22;21757;43.610;1.440;2022-09-19T02:47:34;13.80;91.80
35635;DHT22;21757;43.610;1.440;2022-09-19T02:50:18;13.80;91.80
35635;DHT22;21757;43.610;1.440;2022-09-19T02:52:49;13.80;91.40
35635;DHT22;21757;43.610;1.440;2022-09-19T02:55:21;13.80;91.70
35635;DHT22;21757;43.610;1.440;2022-09-19T02:57:52;13.80;91.80
35635;DHT22;21757;43.610;1.440;2022-09-19T03:00:19;13.80;91.70
35635;DHT22;21757;43.610;1.440;2022-09-19T03:02:53;13.80;91.60
35635;DHT22;21757;43.610;1.440;2022-09-19T03:05:23;13.80;91.70
35635;DHT22;21757;43.610;1.440;2022-09-19T03:08:03;13.70;92.10
35635;DHT22;21757;43.610;1.440;2022-09-19T03:10:34;13.70;92.00
35635;DHT22;21757;43.610;1.440;2022-09-19T03:13:04;13.80;92.00
35635;DHT22;21757;43.610;1.440;2022-09-19T03:15:42;13.70;91.90
35635;DHT22;21757;43.610;1.440;2022-09-19T03:18:13;13.70;92.00
35635;DHT22;21757;43.610;1.440;2022-09-19T03:20:48;13.70;92.10
35635;DHT22;21757;43.610;1.440;2022-09-19T03:23:19;13.60;92.10
35635;DHT22;21757;43.610;1.440;2022-09-19T03:25:48;13.60;92.30
35635;DHT22;21757;43.610;1.440;2022-09-19T03:28:13;13.60;92.30
35635;DHT22;21757;43.610;1.440;2022-09-19T03:30:45;13.60;92.70
35635;DHT22;21757;43.610;1.440;2022-09-19T03:33:11;13.50;92.40
35635;DHT22;21757;43.610;1.440;2022-09-19T03:35:43;13.60;92.30
35635;DHT22;21757;43.610;1.440;2022-09-19T03:38:10;13.50;92.40
35635;DHT22;21757;43.610;1.440;2022-09-19T03:40:36;13.50;92.50
35635;DHT22;21757;43.610;1.440;2022-09-19T03:43:03;13.50;92.50
35635;DHT22;21757;43.610;1.440;2022-09-19T03:45:30;13.50;92.70
35635;DHT22;21757;43.610;1.440;2022-09-19T03:47:56;13.50;92.70
35635;DHT22;21757;43.610;1.440;2022-09-19T03:50:22;13.40;92.70
35635;DHT22;21757;43.610;1.440;2022-09-19T03:52:49;13.40;92.90
35635;DHT22;21757;43.610;1.440;2022-09-19T03:55:15;13.40;92.90
35635;DHT22;21757;43.610;1.440;2022-09-19T03:57:41;13.40;93.00
35635;DHT22;21757;43.610;1.440;2022-09-19T04:00:07;13.40;92.90
35635;DHT22;21757;43.610;1.440;2022-09-19T04:02:33;13.40;93.00
35635;DHT22;21757;43.610;1.440;2022-09-19T04:05:00;13.40;93.00
35635;DHT22;21757;43.610;1.440;2022-09-19T04:07:27;13.30;93.20
35635;DHT22;21757;43.610;1.440;2022-09-19T04:09:53;13.30;93.10
35635;DHT22;21757;43.610;1.440;2022-09-19T04:12:21;13.30;93.50
35635;DHT22;21757;43.610;1.440;2022-09-19T04:14:47;13.20;93.10
35635;DHT22;21757;43.610;1.440;2022-09-19T04:17:14;13.20;93.60
35635;DHT22;21757;43.610;1.440;2022-09-19T04:19:40;13.20;93.40
35635;DHT22;21757;43.610;1.440;2022-09-19T04:22:10;13.10;93.30
35635;DHT22;21757;43.610;1.440;2022-09-19T04:24:36;13.10;93.70
35635;DHT22;21757;43.610;1.440;2022-09-19T04:27:04;13.10;93.40
35635;DHT22;21757;43.610;1.440;2022-09-19T04:29:33;13.10;93.60
35635;DHT22;21757;43.610;1.440;2022-09-19T04:31:59;13.10;93.60
35635;DHT22;21757;43.610;1.440;2022-09-19T04:34:28;13.10;93.60
35635;DHT22;21757;43.610;1.440;2022-09-19T04:36:55;13.10;93.40
35635;DHT22;21757;43.610;1.440;2022-09-19T04:39:22;13.10;93.80
35635;DHT22;21757;43.610;1.440;2022-09-19T04:41:48;13.10;93.60
35635;DHT22;21757;43.610;1.440;2022-09-19T04:44:20;13.10;93.60
35635;DHT22;21757;43.610;1.440;2022-09-19T04:46:53;13.10;93.80
35635;DHT22;21757;43.610;1.440;2022-09-19T04:49:18;13.10;93.80
35635;DHT22;21757;43.610;1.440;2022-09-19T04:51:47;13.10;93.90
35635;DHT22;21757;43.610;1.440;2022-09-19T04:54:13;13.10;94.00
35635;DHT22;21757;43.610;1.440;2022-09-19T04:56:40;13.00;94.10
35635;DHT22;21757;43.610;1.440;2022-09-19T04:59:10;13.00;94.10
35635;DHT22;21757;43.610;1.440;2022-09-19T05:01:36;12.90;93.90
35635;DHT22;21757;43.610;1.440;2022-09-19T05:04:02;13.00;94.30
35635;DHT22;21757;43.610;1.440;2022-09-19T05:06:30;13.00;94.20
35635;DHT22;21757;43.610;1.440;2022-09-19T05:08:56;13.00;94.60
35635;DHT22;21757;43.610;1.440;2022-09-19T05:11:23;13.00;94.30
35635;DHT22;21757;43.610;1.440;2022-09-19T05:13:49;13.00;94.50
35635;DHT22;21757;43.610;1.440;2022-09-19T05:16:16;12.90;94.40
35635;DHT22;21757;43.610;1.440;2022-09-19T05:18:44;12.90;94.40
35635;DHT22;21757;43.610;1.440;2022-09-19T05:21:12;12.90;94.50
35635;DHT22;21757;43.610;1.440;2022-09-19T05:23:39;12.90;94.60
35635;DHT22;21757;43.610;1.440;2022-09-19T05:26:10;12.90;94.60
35635;DHT22;21757;43.610;1.440;2022-09-19T05:28:36;12.90;94.90
35635;DHT22;21757;43.610;1.440;2022-09-19T05:31:03;12.90;94.70
35635;DHT22;21757;43.610;1.440;2022-09-19T05:33:33;12.80;95.10
35635;DHT22;21757;43.610;1.440;2022-09-19T05:36:01;12.80;95.00
35635;DHT22;21757;43.610;1.440;2022-09-19T05:38:28;12.80;95.00
35635;DHT22;21757;43.610;1.440;2022-09-19T05:40:56;12.80;95.30
35635;DHT22;21757;43.610;1.440;2022-09-19T05:43:22;12.80;95.20
35635;DHT22;21757;43.610;1.440;2022-09-19T05:45:50;12.80;95.70
35635;DHT22;21757;43.610;1.440;2022-09-19T05:48:16;12.90;95.40
35635;DHT22;21757;43.610;1.440;2022-09-19T05:50:46;12.90;95.30
35635;DHT22;21757;43.610;1.440;2022-09-19T05:53:13;12.90;95.50
35635;DHT22;21757;43.610;1.440;2022-09-19T05:55:57;12.90;95.90
35635;DHT22;21757;43.610;1.440;2022-09-19T05:58:23;12.90;95.70
35635;DHT22;21757;43.610;1.440;2022-09-19T06:00:50;12.90;95.70
35635;DHT22;21757;43.610;1.440;2022-09-19T06:03:17;13.00;95.80
35635;DHT22;21757;43.610;1.440;2022-09-19T06:05:47;13.00;95.80
35635;DHT22;21757;43.610;1.440;2022-09-19T06:08:16;13.00;95.70
35635;DHT22;21757;43.610;1.440;2022-09-19T06:10:43;13.00;95.80
35635;DHT22;21757;43.610;1.440;2022-09-19T06:13:14;13.00;96.10
35635;DHT22;21757;43.610;1.440;2022-09-19T06:15:40;13.00;95.90
35635;DHT22;21757;43.610;1.440;2022-09-19T06:18:07;13.10;95.80
35635;DHT22;21757;43.610;1.440;2022-09-19T06:20:35;13.10;96.00
35635;DHT22;21757;43.610;1.440;2022-09-19T06:23:03;13.10;99.90
35635;DHT22;21757;43.610;1.440;2022-09-19T06:25:30;13.10;96.00
35635;DHT22;21757;43.610;1.440;2022-09-19T06:27:57;13.20;96.10
35635;DHT22;21757;43.610;1.440;2022-09-19T06:30:23;13.30;96.10
35635;DHT22;21757;43.610;1.440;2022-09-19T06:32:50;13.30;96.30
35635;DHT22;21757;43.610;1.440;2022-09-19T06:35:17;13.30;96.10
35635;DHT22;21757;43.610;1.440;2022-09-19T06:37:42;13.30;96.30
35635;DHT22;21757;43.610;1.440;2022-09-19T06:40:08;13.30;96.20
35635;DHT22;21757;43.610;1.440;2022-09-19T06:42:34;13.40;96.20
35635;DHT22;21757;43.610;1.440;2022-09-19T06:45:00;13.50;96.20
35635;DHT22;21757;43.610;1.440;2022-09-19T06:47:26;13.50;96.40
35635;DHT22;21757;43.610;1.440;2022-09-19T06:49:52;13.50;96.10
35635;DHT22;21757;43.610;1.440;2022-09-19T06:52:18;13.60;96.20
35635;DHT22;21757;43.610;1.440;2022-09-19T06:54:44;13.70;96.10
35635;DHT22;21757;43.610;1.440;2022-09-19T06:57:10;13.80;96.20
35635;DHT22;21757;43.610;1.440;2022-09-19T06:59:37;13.80;95.90
35635;DHT22;21757;43.610;1.440;2022-09-19T07:02:04;14.00;96.10
35635;DHT22;21757;43.610;1.440;2022-09-19T07:04:29;14.00;96.30
35635;DHT22;21757;43.610;1.440;2022-09-19T07:06:55;14.00;96.00
35635;DHT22;21757;43.610;1.440;2022-09-19T07:09:22;14.00;96.00
35635;DHT22;21757;43.610;1.440;2022-09-19T07:11:51;14.00;96.00
35635;DHT22;21757;43.610;1.440;2022-09-19T07:14:17;14.10;96.10
35635;DHT22;21757;43.610;1.440;2022-09-19T07:16:42;14.10;96.40
35635;DHT22;21757;43.610;1.440;2022-09-19T07:19:08;14.30;96.10
35635;DHT22;21757;43.610;1.440;2022-09-19T07:21:33;14.30;95.70
35635;DHT22;21757;43.610;1.440;2022-09-19T07:23:59;14.30;95.70
35635;DHT22;21757;43.610;1.440;2022-09-19T07:26:27;14.40;99.90
35635;DHT22;21757;43.610;1.440;2022-09-19T07:28:52;14.40;95.60
35635;DHT22;21757;43.610;1.440;2022-09-19T07:31:18;14.50;95.90
35635;DHT22;21757;43.610;1.440;2022-09-19T07:33:44;14.60;95.70
35635;DHT22;21757;43.610;1.440;2022-09-19T07:36:10;14.70;95.60
35635;DHT22;21757;43.610;1.440;2022-09-19T07:38:37;14.80;95.50
35635;DHT22;21757;43.610;1.440;2022-09-19T07:41:03;14.80;96.20
35635;DHT22;21757;43.610;1.440;2022-09-19T07:43:28;14.90;95.50
35635;DHT22;21757;43.610;1.440;2022-09-19T07:45:54;15.00;95.60
35635;DHT22;21757;43.610;1.440;2022-09-19T07:48:20;15.10;95.40
35635;DHT22;21757;43.610;1.440;2022-09-19T07:50:47;15.20;95.80
35635;DHT22;21757;43.610;1.440;2022-09-19T07:53:19;15.30;95.40
35635;DHT22;21757;43.610;1.440;2022-09-19T07:55:55;15.30;95.50
35635;DHT22;21757;43.610;1.440;2022-09-19T07:58:25;15.40;95.10
35635;DHT22;21757;43.610;1.440;2022-09-19T08:00:52;15.40;95.20
35635;DHT22;21757;43.610;1.440;2022-09-19T08:03:19;15.50;95.00
35635;DHT22;21757;43.610;1.440;2022-09-19T08:05:47;15.50;95.00
35635;DHT22;21757;43.610;1.440;2022-09-19T08:08:15;15.60;94.80
35635;DHT22;21757;43.610;1.440;2022-09-19T08:10:42;15.70;95.20
35635;DHT22;21757;43.610;1.440;2022-09-19T08:13:09;15.80;94.90
35635;DHT22;21757;43.610;1.440;2022-09-19T08:15:36;15.90;94.90
35635;DHT22;21757;43.610;1.440;2022-09-19T08:20:30;15.90;94.80
35635;DHT22;21757;43.610;1.440;2022-09-19T08:23:00;16.00;94.60
35635;DHT22;21757;43.610;1.440;2022-09-19T08:25:28;15.80;94.60
35635;DHT22;21757;43.610;1.440;2022-09-19T08:27:54;16.00;94.80
35635;DHT22;21757;43.610;1.440;2022-09-19T08:30:23;16.10;94.50
35635;DHT22;21757;43.610;1.440;2022-09-19T08:32:50;16.20;94.60
35635;DHT22;21757;43.610;1.440;2022-09-19T08:35:19;16.30;94.50
35635;DHT22;21757;43.610;1.440;2022-09-19T08:37:53;16.40;94.70
35635;DHT22;21757;43.610;1.440;2022-09-19T08:40:30;16.40;94.70
35635;DHT22;21757;43.610;1.440;2022-09-19T08:51:50;16.80;94.70
35635;DHT22;21757;43.610;1.440;2022-09-19T08:54:31;16.90;94.60
35635;DHT22;21757;43.610;1.440;2022-09-19T08:57:00;16.90;94.20
35635;DHT22;21757;43.610;1.440;2022-09-19T08:59:32;17.10;94.50
35635;DHT22;21757;43.610;1.440;2022-09-19T09:02:09;17.20;94.20
35635;DHT22;21757;43.610;1.440;2022-09-19T09:04:40;17.30;94.10
35635;DHT22;21757;43.610;1.440;2022-09-19T09:21:30;17.80;94.30
35635;DHT22;21757;43.610;1.440;2022-09-19T09:24:12;17.80;94.10
35635;DHT22;21757;43.610;1.440;2022-09-19T09:26:41;17.90;94.20
35635;DHT22;21757;43.610;1.440;2022-09-19T09:34:25;18.30;93.60
35635;DHT22;21757;43.610;1.440;2022-09-19T09:37:03;18.30;93.50
35635;DHT22;21757;43.610;1.440;2022-09-19T09:39:41;18.30;93.50
35635;DHT22;21757;43.610;1.440;2022-09-19T09:42:52;18.40;93.80
35635;DHT22;21757;43.610;1.440;2022-09-19T09:45:29;18.50;93.70
35635;DHT22;21757;43.610;1.440;2022-09-19T09:48:26;18.60;93.30
35635;DHT22;21757;43.610;1.440;2022-09-19T09:53:53;18.70;93.40
35635;DHT22;21757;43.610;1.440;2022-09-19T09:56:45;19.20;94.00
35635;DHT22;21757;43.610;1.440;2022-09-19T09:59:30;19.20;93.60
35635;DHT22;21757;43.610;1.440;2022-09-19T10:05:13;19.40;93.60
35635;DHT22;21757;43.610;1.440;2022-09-19T10:10:13;19.50;93.20
35635;DHT22;21757;43.610;1.440;2022-09-19T10:13:04;19.60;93.20
35635;DHT22;21757;43.610;1.440;2022-09-19T10:15:36;19.60;93.00
35635;DHT22;21757;43.610;1.440;2022-09-19T10:18:06;19.80;93.30
35635;DHT22;21757;43.610;1.440;2022-09-19T10:20:37;19.70;93.20
35635;DHT22;21757;43.610;1.440;2022-09-19T10:23:13;19.80;92.90
35635;DHT22;21757;43.610;1.440;2022-09-19T10:25:40;20.00;92.90
35635;DHT22;21757;43.610;1.440;2022-09-19T10:28:26;20.00;92.80
35635;DHT22;21757;43.610;1.440;2022-09-19T10:31:00;20.10;92.90
35635;DHT22;21757;43.610;1.440;2022-09-19T10:33:32;20.10;93.00
35635;DHT22;21757;43.610;1.440;2022-09-19T10:36:18;20.20;92.70
35635;DHT22;21757;43.610;1.440;2022-09-19T10:38:50;20.30;93.10
35635;DHT22;21757;43.610;1.440;2022-09-19T10:41:20;20.50;93.00
35635;DHT22;21757;43.610;1.440;2022-09-19T10:43:52;20.50;92.80
35635;DHT22;21757;43.610;1.440;2022-09-19T10:46:25;20.60;92.90
35635;DHT22;21757;43.610;1.440;2022-09-19T10:49:06;20.60;92.80
35635;DHT22;21757;43.610;1.440;2022-09-19T10:51:43;20.60;92.60
35635;DHT22;21757;43.610;1.440;2022-09-19T10:54:12;20.70;93.00
35635;DHT22;21757;43.610;1.440;2022-09-19T10:56:45;20.80;92.70
35635;DHT22;21757;43.610;1.440;2022-09-19T10:59:18;20.80;92.80
35635;DHT22;21757;43.610;1.440;2022-09-19T11:04:36;21.10;93.00
35635;DHT22;21757;43.610;1.440;2022-09-19T11:07:14;21.00;92.90
35635;DHT22;21757;43.610;1.440;2022-09-19T11:09:42;21.00;92.70
35635;DHT22;21757;43.610;1.440;2022-09-19T11:12:13;21.20;92.90
35635;DHT22;21757;43.610;1.440;2022-09-19T11:14:45;21.30;92.60
35635;DHT22;21757;43.610;1.440;2022-09-19T11:34:02;21.50;92.40
35635;DHT22;21757;43.610;1.440;2022-09-19T11:39:59;21.80;92.20
35635;DHT22;21757;43.610;1.440;2022-09-19T11:45:12;22.00;92.10
35635;DHT22;21757;43.610;1.440;2022-09-19T11:53:22;22.10;92.00
35635;DHT22;21757;43.610;1.440;2022-09-19T12:10:34;22.80;91.80
35635;DHT22;21757;43.610;1.440;2022-09-19T12:12:41;22.70;91.70
35635;DHT22;21757;43.610;1.440;2022-09-19T12:15:22;22.80;91.40
35635;DHT22;21757;43.610;1.440;2022-09-19T12:20:26;23.00;91.30
35635;DHT22;21757;43.610;1.440;2022-09-19T12:25:59;23.10;91.10
35635;DHT22;21757;43.610;1.440;2022-09-19T12:28:36;23.00;90.90
35635;DHT22;21757;43.610;1.440;2022-09-19T12:31:07;23.00;91.30
35635;DHT22;21757;43.610;1.440;2022-09-19T12:33:46;23.10;91.10
35635;DHT22;21757;43.610;1.440;2022-09-19T12:36:24;23.20;91.00
35635;DHT22;21757;43.610;1.440;2022-09-19T12:39:06;23.30;90.90
35635;DHT22;21757;43.610;1.440;2022-09-19T12:42:24;23.40;90.50
35635;DHT22;21757;43.610;1.440;2022-09-19T12:45:03;23.60;90.40
35635;DHT22;21757;43.610;1.440;2022-09-19T12:47:41;23.70;90.20
35635;DHT22;21757;43.610;1.440;2022-09-19T12:53:05;23.60;90.10
35635;DHT22;21757;43.610;1.440;2022-09-19T12:56:00;23.70;90.00
35635;DHT22;21757;43.610;1.440;2022-09-19T12:59:13;23.70;89.80
35635;DHT22;21757;43.610;1.440;2022-09-19T13:01:27;23.60;89.70
35635;DHT22;21757;43.610;1.440;2022-09-19T13:04:08;23.70;89.20
35635;DHT22;21757;43.610;1.440;2022-09-19T13:06:39;23.90;89.60
35635;DHT22;21757;43.610;1.440;2022-09-19T13:09:10;24.00;89.60
35635;DHT22;21757;43.610;1.440;2022-09-19T13:11:44;24.10;89.30
35635;DHT22;21757;43.610;1.440;2022-09-19T13:14:19;24.20;89.00
35635;DHT22;21757;43.610;1.440;2022-09-19T13:16:47;24.20;89.10
35635;DHT22;21757;43.610;1.440;2022-09-19T13:19:36;24.10;88.60
35635;DHT22;21757;43.610;1.440;2022-09-19T13:22:21;24.20;88.30
35635;DHT22;21757;43.610;1.440;2022-09-19T13:25:20;24.40;88.10
35635;DHT22;21757;43.610;1.440;2022-09-19T13:30:51;24.50;87.80
35635;DHT22;21757;43.610;1.440;2022-09-19T13:33:34;24.50;87.50
35635;DHT22;21757;43.610;1.440;2022-09-19T13:36:15;24.50;87.00
35635;DHT22;21757;43.610;1.440;2022-09-19T13:38:45;24.70;86.90
35635;DHT22;21757;43.610;1.440;2022-09-19T13:41:18;24.80;86.00
35635;DHT22;21757;43.610;1.440;2022-09-19T13:44:20;24.70;86.10
35635;DHT22;21757;43.610;1.440;2022-09-19T13:46:52;24.50;86.30
35635;DHT22;21757;43.610;1.440;2022-09-19T13:49:39;24.50;86.20
35635;DHT22;21757;43.610;1.440;2022-09-19T13:52:16;24.70;85.80
35635;DHT22;21757;43.610;1.440;2022-09-19T13:54:59;24.70;85.50
35635;DHT22;21757;43.610;1.440;2022-09-19T13:57:31;24.70;85.60
35635;DHT22;21757;43.610;1.440;2022-09-19T14:00:01;24.90;85.20
35635;DHT22;21757;43.610;1.440;2022-09-19T14:02:38;24.90;84.70
35635;DHT22;21757;43.610;1.440;2022-09-19T14:10:05;24.90;84.40
35635;DHT22;21757;43.610;1.440;2022-09-19T14:20:57;24.90;83.70
35635;DHT22;21757;43.610;1.440;2022-09-19T14:23:39;24.90;83.50
35635;DHT22;21757;43.610;1.440;2022-09-19T14:29:00;25.00;83.00
35635;DHT22;21757;43.610;1.440;2022-09-19T14:43:11;25.20;81.90
35635;DHT22;21757;43.610;1.440;2022-09-19T14:48:44;25.10;81.20
35635;DHT22;21757;43.610;1.440;2022-09-19T14:59:25;25.00;80.00
35635;DHT22;21757;43.610;1.440;2022-09-19T15:01:53;25.00;80.00
35635;DHT22;21757;43.610;1.440;2022-09-19T15:04:23;25.20;79.90
35635;DHT22;21757;43.610;1.440;2022-09-19T15:06:54;25.20;79.60
35635;DHT22;21757;43.610;1.440;2022-09-19T15:09:28;25.10;79.90
35635;DHT22;21757;43.610;1.440;2022-09-19T15:11:57;25.10;79.90
35635;DHT22;21757;43.610;1.440;2022-09-19T15:14:24;25.10;79.60
35635;DHT22;21757;43.610;1.440;2022-09-19T15:17:14;25.00;79.20
35635;DHT22;21757;43.610;1.440;2022-09-19T15:19:42;25.10;79.30
35635;DHT22;21757;43.610;1.440;2022-09-19T15:22:23;25.20;78.70
35635;DHT22;21757;43.610;1.440;2022-09-19T15:24:49;25.20;78.90
35635;DHT22;21757;43.610;1.440;2022-09-19T15:27:23;25.30;78.90
35635;DHT22;21757;43.610;1.440;2022-09-19T15:29:49;25.30;78.60
35635;DHT22;21757;43.610;1.440;2022-09-19T15:32:25;25.30;77.60
35635;DHT22;21757;43.610;1.440;2022-09-19T15:34:56;25.40;77.90
35635;DHT22;21757;43.610;1.440;2022-09-19T15:37:24;25.30;77.70
35635;DHT22;21757;43.610;1.440;2022-09-19T15:39:52;25.30;77.10
35635;DHT22;21757;43.610;1.440;2022-09-19T15:42:18;25.40;77.40
35635;DHT22;21757;43.610;1.440;2022-09-19T15:44:45;25.50;77.90
35635;DHT22;21757;43.610;1.440;2022-09-19T15:47:14;25.30;77.30
35635;DHT22;21757;43.610;1.440;2022-09-19T15:49:42;25.40;77.20
35635;DHT22;21757;43.610;1.440;2022-09-19T15:52:17;25.40;76.90
35635;DHT22;21757;43.610;1.440;2022-09-19T15:54:54;25.40;77.60
35635;DHT22;21757;43.610;1.440;2022-09-19T15:57:49;25.50;76.70
35635;DHT22;21757;43.610;1.440;2022-09-19T16:00:21;25.50;76.70
35635;DHT22;21757;43.610;1.440;2022-09-19T16:02:48;25.50;76.40
35635;DHT22;21757;43.610;1.440;2022-09-19T16:05:17;25.50;76.20
35635;DHT22;21757;43.610;1.440;2022-09-19T16:07:49;25.50;75.90
35635;DHT22;21757;43.610;1.440;2022-09-19T16:10:37;25.40;75.70
35635;DHT22;21757;43.610;1.440;2022-09-19T16:13:04;25.40;75.10
35635;DHT22;21757;43.610;1.440;2022-09-19T16:15:43;25.30;75.00
35635;DHT22;21757;43.610;1.440;2022-09-19T16:18:15;25.20;74.70
35635;DHT22;21757;43.610;1.440;2022-09-19T16:20:49;25.00;74.10
35635;DHT22;21757;43.610;1.440;2022-09-19T16:23:20;25.00;73.90
35635;DHT22;21757;43.610;1.440;2022-09-19T16:33:59;24.70;73.50
35635;DHT22;21757;43.610;1.440;2022-09-19T16:36:26;24.70;73.10
35635;DHT22;21757;43.610;1.440;2022-09-19T16:41:25;24.70;72.70
35635;DHT22;21757;43.610;1.440;2022-09-19T16:44:03;24.70;72.90
35635;DHT22;21757;43.610;1.440;2022-09-19T16:46:37;24.80;73.50
35635;DHT22;21757;43.610;1.440;2022-09-19T16:49:02;24.80;72.50
35635;DHT22;21757;43.610;1.440;2022-09-19T16:51:28;24.90;73.00
35635;DHT22;21757;43.610;1.440;2022-09-19T16:53:54;24.80;72.50
35635;DHT22;21757;43.610;1.440;2022-09-19T16:56:23;24.80;72.90
35635;DHT22;21757;43.610;1.440;2022-09-19T16:58:49;24.60;72.90
35635;DHT22;21757;43.610;1.440;2022-09-19T17:01:15;24.60;72.70
35635;DHT22;21757;43.610;1.440;2022-09-19T17:03:40;24.60;72.40
35635;DHT22;21757;43.610;1.440;2022-09-19T17:06:10;24.60;72.70
35635;DHT22;21757;43.610;1.440;2022-09-19T17:08:37;24.60;72.90
35635;DHT22;21757;43.610;1.440;2022-09-19T17:11:03;24.50;72.40
35635;DHT22;21757;43.610;1.440;2022-09-19T17:13:29;24.30;72.00
35635;DHT22;21757;43.610;1.440;2022-09-19T17:16:00;24.30;71.90
35635;DHT22;21757;43.610;1.440;2022-09-19T17:18:28;24.30;71.40
35635;DHT22;21757;43.610;1.440;2022-09-19T17:20:57;24.20;71.90
35635;DHT22;21757;43.610;1.440;2022-09-19T17:23:25;24.00;71.90
35635;DHT22;21757;43.610;1.440;2022-09-19T17:25:53;23.90;71.90
35635;DHT22;21757;43.610;1.440;2022-09-19T17:28:22;23.90;71.70
35635;DHT22;21757;43.610;1.440;2022-09-19T17:30:49;23.90;71.80
35635;DHT22;21757;43.610;1.440;2022-09-19T17:33:17;23.70;71.40
35635;DHT22;21757;43.610;1.440;2022-09-19T17:35:43;23.80;71.60
35635;DHT22;21757;43.610;1.440;2022-09-19T17:38:09;23.70;71.80
35635;DHT22;21757;43.610;1.440;2022-09-19T17:40:43;23.60;71.50
35635;DHT22;21757;43.610;1.440;2022-09-19T17:43:15;23.60;71.40
35635;DHT22;21757;43.610;1.440;2022-09-19T17:45:41;23.50;71.90
35635;DHT22;21757;43.610;1.440;2022-09-19T17:48:10;23.40;71.30
35635;DHT22;21757;43.610;1.440;2022-09-19T17:50:37;23.30;71.30
35635;DHT22;21757;43.610;1.440;2022-09-19T17:53:07;23.20;71.20
35635;DHT22;21757;43.610;1.440;2022-09-19T17:55:33;23.10;71.00
35635;DHT22;21757;43.610;1.440;2022-09-19T17:57:59;23.00;70.80
35635;DHT22;21757;43.610;1.440;2022-09-19T18:00:25;23.00;71.30
35635;DHT22;21757;43.610;1.440;2022-09-19T18:02:50;23.00;71.20
35635;DHT22;21757;43.610;1.440;2022-09-19T18:05:35;22.90;71.10
35635;DHT22;21757;43.610;1.440;2022-09-19T18:08:02;22.90;71.30
35635;DHT22;21757;43.610;1.440;2022-09-19T18:10:30;22.90;71.40
35635;DHT22;21757;43.610;1.440;2022-09-19T18:12:57;22.70;71.80
35635;DHT22;21757;43.610;1.440;2022-09-19T18:15:26;22.70;71.40
35635;DHT22;21757;43.610;1.440;2022-09-19T18:17:52;22.60;71.30
35635;DHT22;21757;43.610;1.440;2022-09-19T18:20:20;22.50;71.50
35635;DHT22;21757;43.610;1.440;2022-09-19T18:22:46;22.40;71.30
35635;DHT22;21757;43.610;1.440;2022-09-19T18:25:12;22.40;71.30
35635;DHT22;21757;43.610;1.440;2022-09-19T18:27:43;22.40;71.10
35635;DHT22;21757;43.610;1.440;2022-09-19T18:30:10;22.30;71.90
35635;DHT22;21757;43.610;1.440;2022-09-19T18:32:36;22.20;71.40
35635;DHT22;21757;43.610;1.440;2022-09-19T18:35:01;22.30;72.30
35635;DHT22;21757;43.610;1.440;2022-09-19T18:37:28;22.10;71.60
35635;DHT22;21757;43.610;1.440;2022-09-19T18:39:54;22.10;71.30
35635;DHT22;21757;43.610;1.440;2022-09-19T18:42:20;22.10;71.40
35635;DHT22;21757;43.610;1.440;2022-09-19T18:44:45;21.90;71.60
35635;DHT22;21757;43.610;1.440;2022-09-19T18:47:11;21.70;71.10
35635;DHT22;21757;43.610;1.440;2022-09-19T18:49:37;21.70;71.50
35635;DHT22;21757;43.610;1.440;2022-09-19T18:52:02;21.60;71.20